sensor_id;sensor_type;location;lat;lon;timestamp;pressure;altitude;pressure_sealevel;temperature;humidity
67740;BME280;54536;50.090;14.420;2023-12-20T00:01:41;99113.53;;;9.50;50.50
67740;BME280;54536;50.090;14.420;2023-12-20T00:04:07;99103.47;;;9.65;50.87
67740;BME280;54536;50.090;14.420;2023-12-20T00:06:33;99108.56;;;9.56;51.13
67740;BME280;54536;50.090;14.420;2023-12-20T00:08:59;99102.06;;;9.60;51.95
67740;BME280;54536;50.090;14.420;2023-12-20T00:11:25;99097.09;;;9.48;52.01
67740;BME280;54536;50.090;14.420;2023-12-20T00:13:51;99089.38;;;9.46;52.29
67740;BME280;54536;50.090;14.420;2023-12-20T00:16:18;99092.50;;;9.30;53.14
67740;BME280;54536;50.090;14.420;2023-12-20T00:18:44;99106.75;;;9.47;52.70
67740;BME280;54536;50.090;14.420;2023-12-20T00:21:11;99109.53;;;9.46;52.59
67740;BME280;54536;50.090;14.420;2023-12-20T00:23:36;99097.34;;;9.45;53.22
67740;BME280;54536;50.090;14.420;2023-12-20T00:26:03;99079.97;;;9.44;53.42
67740;BME280;54536;50.090;14.420;2023-12-20T00:28:29;99075.81;;;9.51;53.89
67740;BME280;54536;50.090;14.420;2023-12-20T00:30:55;99076.25;;;9.46;54.00
67740;BME280;54536;50.090;14.420;2023-12-20T00:33:21;99086.31;;;9.41;54.45
67740;BME280;54536;50.090;14.420;2023-12-20T00:35:47;99098.03;;;9.27;54.37
67740;BME280;54536;50.090;14.420;2023-12-20T00:38:13;99097.06;;;9.38;55.46
67740;BME280;54536;50.090;14.420;2023-12-20T00:40:40;99098.72;;;9.20;55.56
67740;BME280;54536;50.090;14.420;2023-12-20T00:43:06;99080.75;;;9.25;55.33
67740;BME280;54536;50.090;14.420;2023-12-20T00:45:32;99077.47;;;9.23;55.62
67740;BME280;54536;50.090;14.420;2023-12-20T00:47:58;99071.50;;;9.21;56.21
67740;BME280;54536;50.090;14.420;2023-12-20T00:50:25;99082.81;;;9.11;56.18
67740;BME280;54536;50.090;14.420;2023-12-20T00:52:51;99061.69;;;9.13;56.50
67740;BME280;54536;50.090;14.420;2023-12-20T00:55:17;99052.81;;;8.95;57.25
67740;BME280;54536;50.090;14.420;2023-12-20T00:57:43;99060.28;;;9.09;57.16
67740;BME280;54536;50.090;14.420;2023-12-20T01:00:10;99050.13;;;9.16;57.38
67740;BME280;54536;50.090;14.420;2023-12-20T01:02:36;99051.59;;;9.08;57.81
67740;BME280;54536;50.090;14.420;2023-12-20T01:05:02;99036.84;;;9.07;57.69
67740;BME280;54536;50.090;14.420;2023-12-20T01:07:28;99041.66;;;9.12;58.75
67740;BME280;54536;50.090;14.420;2023-12-20T01:09:55;99051.63;;;9.18;58.00
67740;BME280;54536;50.090;14.420;2023-12-20T01:12:22;99053.00;;;9.12;58.40
67740;BME280;54536;50.090;14.420;2023-12-20T01:14:48;99047.59;;;9.04;58.26
67740;BME280;54536;50.090;14.420;2023-12-20T01:17:14;99045.25;;;9.01;58.82
67740;BME280;54536;50.090;14.420;2023-12-20T01:19:40;99058.00;;;9.16;59.18
67740;BME280;54536;50.090;14.420;2023-12-20T01:22:06;99047.19;;;9.09;59.08
67740;BME280;54536;50.090;14.420;2023-12-20T01:24:32;99030.63;;;9.18;58.77
67740;BME280;54536;50.090;14.420;2023-12-20T01:26:58;99042.34;;;9.04;59.43
67740;BME280;54536;50.090;14.420;2023-12-20T01:29:24;99030.75;;;9.07;59.47
67740;BME280;54536;50.090;14.420;2023-12-20T01:31:50;99022.75;;;9.18;58.96
67740;BME280;54536;50.090;14.420;2023-12-20T01:34:17;99024.13;;;9.03;60.13
67740;BME280;54536;50.090;14.420;2023-12-20T01:36:43;99003.28;;;9.01;60.19
67740;BME280;54536;50.090;14.420;2023-12-20T01:39:10;99005.22;;;9.09;59.96
67740;BME280;54536;50.090;14.420;2023-12-20T01:41:36;99001.22;;;9.05;60.26
67740;BME280;54536;50.090;14.420;2023-12-20T01:44:02;98997.78;;;9.14;60.25
67740;BME280;54536;50.090;14.420;2023-12-20T01:46:28;98986.31;;;9.25;60.55
67740;BME280;54536;50.090;14.420;2023-12-20T01:48:54;98983.28;;;9.20;60.50
67740;BME280;54536;50.090;14.420;2023-12-20T01:51:21;98981.91;;;9.06;60.81
67740;BME280;54536;50.090;14.420;2023-12-20T01:53:48;98983.13;;;9.02;60.66
67740;BME280;54536;50.090;14.420;2023-12-20T01:56:16;98992.09;;;9.09;60.73
67740;BME280;54536;50.090;14.420;2023-12-20T01:58:47;98979.56;;;9.12;60.74
67740;BME280;54536;50.090;14.420;2023-12-20T02:01:13;98981.34;;;9.12;61.41
67740;BME280;54536;50.090;14.420;2023-12-20T02:03:41;98976.50;;;9.07;61.68
67740;BME280;54536;50.090;14.420;2023-12-20T02:06:09;98984.22;;;9.09;61.81
67740;BME280;54536;50.090;14.420;2023-12-20T02:08:36;98982.84;;;8.95;61.90
67740;BME280;54536;50.090;14.420;2023-12-20T02:11:02;98969.59;;;8.97;62.33
67740;BME280;54536;50.090;14.420;2023-12-20T02:13:28;98984.22;;;9.09;61.42
67740;BME280;54536;50.090;14.420;2023-12-20T02:15:54;98977.22;;;9.09;61.63
67740;BME280;54536;50.090;14.420;2023-12-20T02:18:21;98973.47;;;9.02;61.77
67740;BME280;54536;50.090;14.420;2023-12-20T02:20:47;98974.16;;;9.14;62.70
67740;BME280;54536;50.090;14.420;2023-12-20T02:23:14;98977.06;;;9.21;61.87
67740;BME280;54536;50.090;14.420;2023-12-20T02:25:40;98982.47;;;9.09;61.85
67740;BME280;54536;50.090;14.420;2023-12-20T02:28:06;98976.94;;;9.22;62.27
67740;BME280;54536;50.090;14.420;2023-12-20T02:30:32;98974.31;;;8.93;61.88
67740;BME280;54536;50.090;14.420;2023-12-20T02:33:00;98977.88;;;8.92;62.60
67740;BME280;54536;50.090;14.420;2023-12-20T02:35:27;98975.25;;;8.92;63.25
67740;BME280;54536;50.090;14.420;2023-12-20T02:37:53;98973.31;;;8.94;62.55
67740;BME280;54536;50.090;14.420;2023-12-20T02:40:19;98969.47;;;9.08;63.28
67740;BME280;54536;50.090;14.420;2023-12-20T02:42:45;98969.16;;;8.82;62.84
67740;BME280;54536;50.090;14.420;2023-12-20T02:45:11;98964.09;;;8.90;63.19
67740;BME280;54536;50.090;14.420;2023-12-20T02:47:38;98969.44;;;8.88;63.59
67740;BME280;54536;50.090;14.420;2023-12-20T02:50:04;98971.13;;;9.09;63.00
67740;BME280;54536;50.090;14.420;2023-12-20T02:52:30;98972.63;;;9.02;63.83
67740;BME280;54536;50.090;14.420;2023-12-20T02:54:56;98967.28;;;9.03;63.12
67740;BME280;54536;50.090;14.420;2023-12-20T02:57:22;98968.91;;;8.95;64.10
67740;BME280;54536;50.090;14.420;2023-12-20T02:59:48;98977.31;;;8.88;63.89
67740;BME280;54536;50.090;14.420;2023-12-20T03:02:14;98965.88;;;8.80;64.88
67740;BME280;54536;50.090;14.420;2023-12-20T03:04:40;98960.06;;;8.86;65.36
67740;BME280;54536;50.090;14.420;2023-12-20T03:07:07;98966.16;;;8.96;64.87
67740;BME280;54536;50.090;14.420;2023-12-20T03:09:32;98966.81;;;8.88;64.02
67740;BME280;54536;50.090;14.420;2023-12-20T03:11:59;98958.94;;;8.79;65.46
67740;BME280;54536;50.090;14.420;2023-12-20T03:14:24;98962.00;;;8.84;64.95
67740;BME280;54536;50.090;14.420;2023-12-20T03:16:51;98960.19;;;8.84;65.31
67740;BME280;54536;50.090;14.420;2023-12-20T03:19:18;98959.22;;;8.76;65.16
67740;BME280;54536;50.090;14.420;2023-12-20T03:21:47;98952.75;;;8.80;65.28
67740;BME280;54536;50.090;14.420;2023-12-20T03:24:13;98959.38;;;8.84;65.11
67740;BME280;54536;50.090;14.420;2023-12-20T03:26:39;98949.41;;;8.68;66.21
67740;BME280;54536;50.090;14.420;2023-12-20T03:29:05;98950.38;;;8.67;66.09
67740;BME280;54536;50.090;14.420;2023-12-20T03:31:32;98950.28;;;8.88;65.82
67740;BME280;54536;50.090;14.420;2023-12-20T03:33:58;98958.94;;;8.69;66.16
67740;BME280;54536;50.090;14.420;2023-12-20T03:36:24;98956.03;;;8.72;66.28
67740;BME280;54536;50.090;14.420;2023-12-20T03:38:49;98965.13;;;8.68;65.88
67740;BME280;54536;50.090;14.420;2023-12-20T03:41:16;98957.69;;;8.63;66.09
67740;BME280;54536;50.090;14.420;2023-12-20T03:43:41;98959.19;;;8.66;65.83
67740;BME280;54536;50.090;14.420;2023-12-20T03:46:09;98952.59;;;8.72;66.51
67740;BME280;54536;50.090;14.420;2023-12-20T03:48:34;98960.63;;;8.80;66.41
67740;BME280;54536;50.090;14.420;2023-12-20T03:51:01;98961.72;;;8.77;66.62
67740;BME280;54536;50.090;14.420;2023-12-20T03:53:27;98954.25;;;8.73;66.05
67740;BME280;54536;50.090;14.420;2023-12-20T03:55:53;98963.88;;;8.62;65.86
67740;BME280;54536;50.090;14.420;2023-12-20T03:58:19;98965.28;;;8.76;65.72
67740;BME280;54536;50.090;14.420;2023-12-20T04:00:46;98966.81;;;8.79;66.33
67740;BME280;54536;50.090;14.420;2023-12-20T04:03:12;98965.56;;;8.73;65.85
67740;BME280;54536;50.090;14.420;2023-12-20T04:05:41;98959.50;;;8.82;66.39
67740;BME280;54536;50.090;14.420;2023-12-20T04:08:08;98960.63;;;8.80;65.73
67740;BME280;54536;50.090;14.420;2023-12-20T04:10:34;98961.69;;;8.67;67.03
67740;BME280;54536;50.090;14.420;2023-12-20T04:13:00;98956.56;;;8.66;67.28
67740;BME280;54536;50.090;14.420;2023-12-20T04:15:26;98963.91;;;8.72;66.37
67740;BME280;54536;50.090;14.420;2023-12-20T04:17:52;98959.16;;;8.56;66.21
67740;BME280;54536;50.090;14.420;2023-12-20T04:20:18;98962.75;;;8.55;66.94
67740;BME280;54536;50.090;14.420;2023-12-20T04:22:44;98968.19;;;8.63;66.69
67740;BME280;54536;50.090;14.420;2023-12-20T04:25:10;98968.31;;;8.72;66.65
67740;BME280;54536;50.090;14.420;2023-12-20T04:27:36;98967.31;;;8.63;64.99
67740;BME280;54536;50.090;14.420;2023-12-20T04:30:03;98976.34;;;8.80;65.27
67740;BME280;54536;50.090;14.420;2023-12-20T04:32:29;98979.34;;;8.65;66.00
67740;BME280;54536;50.090;14.420;2023-12-20T04:34:55;98977.56;;;8.76;66.12
67740;BME280;54536;50.090;14.420;2023-12-20T04:37:21;98972.19;;;8.67;65.27
67740;BME280;54536;50.090;14.420;2023-12-20T04:39:47;98976.44;;;8.59;64.45
67740;BME280;54536;50.090;14.420;2023-12-20T04:42:13;98990.53;;;8.67;65.49
67740;BME280;54536;50.090;14.420;2023-12-20T04:44:39;98977.56;;;8.76;65.40
67740;BME280;54536;50.090;14.420;2023-12-20T04:47:05;98979.91;;;8.69;65.02
67740;BME280;54536;50.090;14.420;2023-12-20T04:49:32;98983.19;;;8.61;64.89
67740;BME280;54536;50.090;14.420;2023-12-20T04:51:57;98986.34;;;8.55;66.04
67740;BME280;54536;50.090;14.420;2023-12-20T04:54:23;98982.94;;;8.64;65.51
67740;BME280;54536;50.090;14.420;2023-12-20T04:56:49;98979.88;;;8.59;66.55
67740;BME280;54536;50.090;14.420;2023-12-20T04:59:16;98984.78;;;8.43;66.21
67740;BME280;54536;50.090;14.420;2023-12-20T05:01:42;98985.09;;;8.50;65.44
67740;BME280;54536;50.090;14.420;2023-12-20T05:04:08;98981.81;;;8.57;66.63
67740;BME280;54536;50.090;14.420;2023-12-20T05:06:34;98977.41;;;8.58;66.46
67740;BME280;54536;50.090;14.420;2023-12-20T05:09:00;98977.41;;;8.58;66.57
67740;BME280;54536;50.090;14.420;2023-12-20T05:11:26;98977.81;;;8.63;65.99
67740;BME280;54536;50.090;14.420;2023-12-20T05:13:52;98975.63;;;8.68;67.25
67740;BME280;54536;50.090;14.420;2023-12-20T05:16:18;98975.03;;;8.55;65.95
67740;BME280;54536;50.090;14.420;2023-12-20T05:18:45;98992.41;;;8.56;66.09
67740;BME280;54536;50.090;14.420;2023-12-20T05:21:11;98982.06;;;8.54;64.88
67740;BME280;54536;50.090;14.420;2023-12-20T05:23:38;98980.38;;;8.43;66.36
67740;BME280;54536;50.090;14.420;2023-12-20T05:26:04;98975.00;;;8.45;65.87
67740;BME280;54536;50.090;14.420;2023-12-20T05:28:30;98986.50;;;8.54;66.42
67740;BME280;54536;50.090;14.420;2023-12-20T05:30:56;98983.06;;;8.32;65.91
67740;BME280;54536;50.090;14.420;2023-12-20T05:33:22;98993.19;;;8.47;66.94
67740;BME280;54536;50.090;14.420;2023-12-20T05:35:48;98992.31;;;8.36;66.51
67740;BME280;54536;50.090;14.420;2023-12-20T05:38:15;98998.16;;;8.40;66.17
67740;BME280;54536;50.090;14.420;2023-12-20T05:40:40;98996.94;;;8.44;66.73
67740;BME280;54536;50.090;14.420;2023-12-20T05:43:06;98994.09;;;8.36;66.18
67740;BME280;54536;50.090;14.420;2023-12-20T05:45:32;99003.72;;;8.26;65.90
67740;BME280;54536;50.090;14.420;2023-12-20T05:47:58;98999.22;;;8.37;66.26
67740;BME280;54536;50.090;14.420;2023-12-20T05:50:24;99000.84;;;8.29;66.49
67740;BME280;54536;50.090;14.420;2023-12-20T05:52:51;98994.50;;;8.31;66.75
67740;BME280;54536;50.090;14.420;2023-12-20T05:55:16;98997.50;;;8.27;66.84
67740;BME280;54536;50.090;14.420;2023-12-20T05:57:43;99001.50;;;8.21;66.33
67740;BME280;54536;50.090;14.420;2023-12-20T06:00:09;99007.31;;;8.25;67.05
67740;BME280;54536;50.090;14.420;2023-12-20T06:02:36;98996.69;;;8.26;66.56
67740;BME280;54536;50.090;14.420;2023-12-20T06:05:06;98996.28;;;8.52;67.06
67740;BME280;54536;50.090;14.420;2023-12-20T06:07:32;98993.28;;;8.35;66.56
67740;BME280;54536;50.090;14.420;2023-12-20T06:09:58;99000.56;;;8.32;66.42
67740;BME280;54536;50.090;14.420;2023-12-20T06:12:25;99000.84;;;8.29;66.18
67740;BME280;54536;50.090;14.420;2023-12-20T06:14:53;98992.69;;;8.22;67.50
67740;BME280;54536;50.090;14.420;2023-12-20T06:17:19;99002.75;;;8.27;66.13
67740;BME280;54536;50.090;14.420;2023-12-20T06:19:45;99011.06;;;8.32;66.30
67740;BME280;54536;50.090;14.420;2023-12-20T06:22:15;99017.91;;;8.23;66.56
67740;BME280;54536;50.090;14.420;2023-12-20T06:24:41;99005.72;;;8.12;66.34
67740;BME280;54536;50.090;14.420;2023-12-20T06:27:07;99010.81;;;8.14;65.63
67740;BME280;54536;50.090;14.420;2023-12-20T06:29:33;99012.84;;;8.31;66.72
67740;BME280;54536;50.090;14.420;2023-12-20T06:32:00;99010.03;;;8.23;66.66
67740;BME280;54536;50.090;14.420;2023-12-20T06:34:26;99016.47;;;8.40;66.95
67740;BME280;54536;50.090;14.420;2023-12-20T06:36:52;99010.31;;;8.41;65.57
67740;BME280;54536;50.090;14.420;2023-12-20T06:39:18;99016.94;;;8.45;66.32
67740;BME280;54536;50.090;14.420;2023-12-20T06:41:44;99019.00;;;8.41;66.63
67740;BME280;54536;50.090;14.420;2023-12-20T06:44:10;99022.81;;;8.37;66.22
67740;BME280;54536;50.090;14.420;2023-12-20T06:46:36;99030.44;;;8.40;65.77
67740;BME280;54536;50.090;14.420;2023-12-20T06:49:03;99037.78;;;8.26;65.67
67740;BME280;54536;50.090;14.420;2023-12-20T06:51:30;99032.94;;;8.21;65.79
67740;BME280;54536;50.090;14.420;2023-12-20T06:53:56;99046.03;;;8.21;64.91
67740;BME280;54536;50.090;14.420;2023-12-20T06:56:22;99047.44;;;8.04;67.21
67740;BME280;54536;50.090;14.420;2023-12-20T06:58:49;99051.13;;;8.23;66.92
67740;BME280;54536;50.090;14.420;2023-12-20T07:01:15;99049.97;;;7.94;65.92
67740;BME280;54536;50.090;14.420;2023-12-20T07:03:42;99064.94;;;7.83;67.39
67740;BME280;54536;50.090;14.420;2023-12-20T07:06:08;99065.00;;;7.92;66.66
67740;BME280;54536;50.090;14.420;2023-12-20T07:08:34;99064.50;;;7.98;66.48
67740;BME280;54536;50.090;14.420;2023-12-20T07:11:00;99059.50;;;7.95;66.53
67740;BME280;54536;50.090;14.420;2023-12-20T07:13:26;99064.09;;;8.03;68.07
67740;BME280;54536;50.090;14.420;2023-12-20T07:15:53;99077.28;;;7.92;66.77
67740;BME280;54536;50.090;14.420;2023-12-20T07:18:19;99075.72;;;7.89;67.89
67740;BME280;54536;50.090;14.420;2023-12-20T07:20:45;99084.69;;;8.08;67.24
67740;BME280;54536;50.090;14.420;2023-12-20T07:23:11;99086.19;;;8.10;66.55
67740;BME280;54536;50.090;14.420;2023-12-20T07:25:37;99075.47;;;8.13;66.45
67740;BME280;54536;50.090;14.420;2023-12-20T07:28:03;99076.38;;;8.03;66.62
67740;BME280;54536;50.090;14.420;2023-12-20T07:30:30;99101.47;;;8.05;66.83
67740;BME280;54536;50.090;14.420;2023-12-20T07:32:56;99094.84;;;8.01;67.77
67740;BME280;54536;50.090;14.420;2023-12-20T07:35:25;99101.84;;;8.21;66.57
67740;BME280;54536;50.090;14.420;2023-12-20T07:37:51;99102.69;;;8.01;66.49
67740;BME280;54536;50.090;14.420;2023-12-20T07:40:17;99098.38;;;8.00;65.62
67740;BME280;54536;50.090;14.420;2023-12-20T07:42:43;99113.34;;;8.09;65.48
67740;BME280;54536;50.090;14.420;2023-12-20T07:45:10;99106.38;;;7.98;65.74
67740;BME280;54536;50.090;14.420;2023-12-20T07:47:38;99110.59;;;8.11;65.60
67740;BME280;54536;50.090;14.420;2023-12-20T07:50:06;99111.66;;;7.87;66.05
67740;BME280;54536;50.090;14.420;2023-12-20T07:52:32;99118.72;;;8.08;64.79
67740;BME280;54536;50.090;14.420;2023-12-20T07:54:59;99118.41;;;8.01;65.73
67740;BME280;54536;50.090;14.420;2023-12-20T07:57:28;99116.16;;;7.96;65.52
67740;BME280;54536;50.090;14.420;2023-12-20T07:59:55;99118.06;;;7.94;65.60
67740;BME280;54536;50.090;14.420;2023-12-20T08:02:21;99109.00;;;7.98;65.66
67740;BME280;54536;50.090;14.420;2023-12-20T08:04:47;99116.97;;;7.97;65.45
67740;BME280;54536;50.090;14.420;2023-12-20T08:07:13;99107.59;;;8.15;66.12
67740;BME280;54536;50.090;14.420;2023-12-20T08:09:40;99102.22;;;8.17;65.17
67740;BME280;54536;50.090;14.420;2023-12-20T08:12:07;99093.78;;;8.13;64.25
67740;BME280;54536;50.090;14.420;2023-12-20T08:14:33;99087.38;;;8.17;64.78
67740;BME280;54536;50.090;14.420;2023-12-20T08:16:59;99103.09;;;8.27;65.31
67740;BME280;54536;50.090;14.420;2023-12-20T08:19:25;99102.75;;;8.32;65.25
67740;BME280;54536;50.090;14.420;2023-12-20T08:21:51;99109.19;;;8.28;63.96
67740;BME280;54536;50.090;14.420;2023-12-20T08:24:17;99112.75;;;8.27;63.94
67740;BME280;54536;50.090;14.420;2023-12-20T08:26:43;99116.09;;;8.29;64.99
67740;BME280;54536;50.090;14.420;2023-12-20T08:29:10;99116.91;;;8.29;64.36
67740;BME280;54536;50.090;14.420;2023-12-20T08:31:38;99115.84;;;8.32;63.22
67740;BME280;54536;50.090;14.420;2023-12-20T08:34:04;99120.69;;;8.36;63.52
67740;BME280;54536;50.090;14.420;2023-12-20T08:36:30;99121.97;;;8.21;64.73
67740;BME280;54536;50.090;14.420;2023-12-20T08:38:56;99128.63;;;8.46;64.80
67740;BME280;54536;50.090;14.420;2023-12-20T08:41:22;99124.03;;;8.38;64.31
67740;BME280;54536;50.090;14.420;2023-12-20T08:43:48;99124.34;;;8.24;64.00
67740;BME280;54536;50.090;14.420;2023-12-20T08:46:15;99126.66;;;8.17;64.53
67740;BME280;54536;50.090;14.420;2023-12-20T08:48:41;99123.44;;;8.14;64.00
67740;BME280;54536;50.090;14.420;2023-12-20T08:51:07;99125.78;;;8.17;64.40
67740;BME280;54536;50.090;14.420;2023-12-20T08:53:34;99123.31;;;8.15;64.29
67740;BME280;54536;50.090;14.420;2023-12-20T08:56:00;99113.09;;;8.12;64.22
67740;BME280;54536;50.090;14.420;2023-12-20T08:58:28;99115.56;;;8.14;64.50
67740;BME280;54536;50.090;14.420;2023-12-20T09:00:54;99108.75;;;8.23;64.34
67740;BME280;54536;50.090;14.420;2023-12-20T09:03:20;99123.56;;;8.12;64.71
67740;BME280;54536;50.090;14.420;2023-12-20T09:05:46;99123.88;;;8.19;64.40
67740;BME280;54536;50.090;14.420;2023-12-20T09:08:12;99118.13;;;8.25;64.14
67740;BME280;54536;50.090;14.420;2023-12-20T09:10:38;99109.25;;;8.16;64.49
67740;BME280;54536;50.090;14.420;2023-12-20T09:13:04;99114.88;;;8.12;64.38
67740;BME280;54536;50.090;14.420;2023-12-20T09:15:30;99108.50;;;8.26;64.43
67740;BME280;54536;50.090;14.420;2023-12-20T09:17:56;99115.00;;;8.31;64.90
67740;BME280;54536;50.090;14.420;2023-12-20T09:20:22;99119.69;;;8.28;64.97
67740;BME280;54536;50.090;14.420;2023-12-20T09:22:49;99116.91;;;8.29;64.03
67740;BME280;54536;50.090;14.420;2023-12-20T09:25:15;99124.88;;;8.39;64.97
67740;BME280;54536;50.090;14.420;2023-12-20T09:27:43;99124.41;;;8.55;64.91
67740;BME280;54536;50.090;14.420;2023-12-20T09:30:09;99127.53;;;8.49;64.26
67740;BME280;54536;50.090;14.420;2023-12-20T09:32:36;99134.50;;;8.59;63.51
67740;BME280;54536;50.090;14.420;2023-12-20T09:35:02;99134.84;;;8.76;62.90
67740;BME280;54536;50.090;14.420;2023-12-20T09:37:31;99137.16;;;8.69;62.81
67740;BME280;54536;50.090;14.420;2023-12-20T09:39:57;99125.75;;;8.70;63.01
67740;BME280;54536;50.090;14.420;2023-12-20T09:42:58;99132.06;;;8.67;63.23
67740;BME280;54536;50.090;14.420;2023-12-20T09:45:24;99127.69;;;8.78;62.61
67740;BME280;54536;50.090;14.420;2023-12-20T09:47:54;99127.16;;;8.84;62.23
67740;BME280;54536;50.090;14.420;2023-12-20T09:50:22;99127.81;;;8.76;62.99
67740;BME280;54536;50.090;14.420;2023-12-20T09:52:53;99121.75;;;8.76;62.84
67740;BME280;54536;50.090;14.420;2023-12-20T09:55:20;99131.41;;;8.75;62.42
67740;BME280;54536;50.090;14.420;2023-12-20T09:57:48;99139.22;;;8.65;62.46
67740;BME280;54536;50.090;14.420;2023-12-20T10:00:15;99132.13;;;8.56;62.82
67740;BME280;54536;50.090;14.420;2023-12-20T10:05:29;99133.34;;;8.73;61.87
67740;BME280;54536;50.090;14.420;2023-12-20T10:07:57;99121.69;;;8.66;62.58
67740;BME280;54536;50.090;14.420;2023-12-20T10:10:23;99127.19;;;8.63;62.37
67740;BME280;54536;50.090;14.420;2023-12-20T10:13:08;99114.28;;;8.71;62.30
67740;BME280;54536;50.090;14.420;2023-12-20T10:15:35;99117.22;;;8.78;62.46
67740;BME280;54536;50.090;14.420;2023-12-20T10:18:02;99116.97;;;8.90;61.76
67740;BME280;54536;50.090;14.420;2023-12-20T10:20:29;99125.00;;;8.99;61.68
67740;BME280;54536;50.090;14.420;2023-12-20T10:22:57;99125.19;;;9.07;61.79
67740;BME280;54536;50.090;14.420;2023-12-20T10:25:24;99112.88;;;8.98;61.56
67740;BME280;54536;50.090;14.420;2023-12-20T10:28:15;99103.72;;;8.92;61.46
67740;BME280;54536;50.090;14.420;2023-12-20T10:30:48;99105.22;;;8.85;61.44
67740;BME280;54536;50.090;14.420;2023-12-20T10:33:26;99113.56;;;9.00;61.87
67740;BME280;54536;50.090;14.420;2023-12-20T10:35:53;99101.00;;;8.94;61.87
67740;BME280;54536;50.090;14.420;2023-12-20T10:38:19;99102.91;;;8.91;61.79
67740;BME280;54536;50.090;14.420;2023-12-20T10:40:46;99098.53;;;9.11;62.10
67740;BME280;54536;50.090;14.420;2023-12-20T10:43:12;99083.91;;;8.99;61.70
67740;BME280;54536;50.090;14.420;2023-12-20T10:45:39;99081.41;;;8.98;61.88
67740;BME280;54536;50.090;14.420;2023-12-20T10:48:10;99079.03;;;8.95;61.12
67740;BME280;54536;50.090;14.420;2023-12-20T10:50:37;99066.63;;;8.97;61.69
67740;BME280;54536;50.090;14.420;2023-12-20T10:53:04;99068.97;;;8.90;61.71
67740;BME280;54536;50.090;14.420;2023-12-20T10:55:30;99056.97;;;8.97;61.83
67740;BME280;54536;50.090;14.420;2023-12-20T10:58:01;99060.00;;;9.02;61.93
67740;BME280;54536;50.090;14.420;2023-12-20T11:00:29;99065.28;;;9.22;61.43
67740;BME280;54536;50.090;14.420;2023-12-20T11:03:00;99071.22;;;9.14;60.98
67740;BME280;54536;50.090;14.420;2023-12-20T11:05:58;99065.31;;;9.31;60.26
67740;BME280;54536;50.090;14.420;2023-12-20T11:08:38;99066.94;;;9.13;60.97
67740;BME280;54536;50.090;14.420;2023-12-20T11:14:11;99059.75;;;9.15;61.18
67740;BME280;54536;50.090;14.420;2023-12-20T11:16:41;99050.00;;;9.36;60.89
67740;BME280;54536;50.090;14.420;2023-12-20T11:19:08;99051.25;;;9.32;60.87
67740;BME280;54536;50.090;14.420;2023-12-20T11:21:34;99054.41;;;9.36;60.32
67740;BME280;54536;50.090;14.420;2023-12-20T11:24:00;99053.72;;;9.44;59.68
67740;BME280;54536;50.090;14.420;2023-12-20T11:26:28;99043.66;;;9.49;59.44
67740;BME280;54536;50.090;14.420;2023-12-20T11:32:27;99040.31;;;9.47;59.14
67740;BME280;54536;50.090;14.420;2023-12-20T11:34:47;99033.53;;;9.44;59.24
67740;BME280;54536;50.090;14.420;2023-12-20T11:37:13;99033.69;;;9.43;59.02
67740;BME280;54536;50.090;14.420;2023-12-20T11:39:40;99037.16;;;9.53;58.83
67740;BME280;54536;50.090;14.420;2023-12-20T11:42:06;99025.69;;;9.54;57.66
67740;BME280;54536;50.090;14.420;2023-12-20T11:44:33;99037.84;;;9.35;58.01
67740;BME280;54536;50.090;14.420;2023-12-20T11:46:59;99026.38;;;9.27;57.97
67740;BME280;54536;50.090;14.420;2023-12-20T11:49:26;99029.53;;;9.40;57.13
67740;BME280;54536;50.090;14.420;2023-12-20T11:51:51;99024.28;;;9.30;57.32
67740;BME280;54536;50.090;14.420;2023-12-20T11:54:18;99024.03;;;9.43;57.15
67740;BME280;54536;50.090;14.420;2023-12-20T11:56:44;99011.72;;;9.34;57.69
67740;BME280;54536;50.090;14.420;2023-12-20T11:59:10;99014.50;;;9.23;57.94
67740;BME280;54536;50.090;14.420;2023-12-20T12:01:37;99008.13;;;9.25;58.11
67740;BME280;54536;50.090;14.420;2023-12-20T12:04:06;99003.84;;;9.24;57.42
67740;BME280;54536;50.090;14.420;2023-12-20T12:06:32;99000.94;;;9.18;58.19
67740;BME280;54536;50.090;14.420;2023-12-20T12:08:59;99003.56;;;9.18;57.87
67740;BME280;54536;50.090;14.420;2023-12-20T12:11:25;99007.56;;;9.12;57.60
67740;BME280;54536;50.090;14.420;2023-12-20T12:13:52;99013.91;;;9.00;58.04
67740;BME280;54536;50.090;14.420;2023-12-20T12:16:19;99014.75;;;9.00;57.75
67740;BME280;54536;50.090;14.420;2023-12-20T12:18:45;99003.28;;;9.01;57.64
67740;BME280;54536;50.090;14.420;2023-12-20T12:21:19;99002.31;;;9.12;58.06
67740;BME280;54536;50.090;14.420;2023-12-20T12:23:46;98991.81;;;9.12;57.77
67740;BME280;54536;50.090;14.420;2023-12-20T12:26:12;98986.84;;;9.09;56.97
67740;BME280;54536;50.090;14.420;2023-12-20T12:28:42;98987.44;;;9.12;55.90
67740;BME280;54536;50.090;14.420;2023-12-20T12:31:13;98979.28;;;9.16;55.58
67740;BME280;54536;50.090;14.420;2023-12-20T12:33:41;98986.47;;;9.23;55.31
67740;BME280;54536;50.090;14.420;2023-12-20T12:36:07;98983.13;;;9.21;55.43
67740;BME280;54536;50.090;14.420;2023-12-20T12:38:33;98981.50;;;9.30;55.34
67740;BME280;54536;50.090;14.420;2023-12-20T12:41:00;98969.19;;;9.30;54.71
67740;BME280;54536;50.090;14.420;2023-12-20T12:43:26;98978.44;;;9.25;54.82
67740;BME280;54536;50.090;14.420;2023-12-20T12:45:53;98968.94;;;9.33;54.50
67740;BME280;54536;50.090;14.420;2023-12-20T12:48:19;98967.00;;;9.26;54.19
67740;BME280;54536;50.090;14.420;2023-12-20T12:50:48;98971.28;;;9.27;53.55
67740;BME280;54536;50.090;14.420;2023-12-20T12:53:14;98972.53;;;9.23;53.26
67740;BME280;54536;50.090;14.420;2023-12-20T12:55:40;98968.50;;;9.28;53.36
67740;BME280;54536;50.090;14.420;2023-12-20T12:58:06;98970.28;;;9.37;52.78
67740;BME280;54536;50.090;14.420;2023-12-20T13:00:32;98964.47;;;9.53;52.58
67740;BME280;54536;50.090;14.420;2023-12-20T13:02:59;98964.47;;;9.53;51.61
67740;BME280;54536;50.090;14.420;2023-12-20T13:05:25;98967.81;;;9.46;51.91
67740;BME280;54536;50.090;14.420;2023-12-20T13:07:51;98980.50;;;9.41;51.62